Nevada, Iowa
Current Conditions -  °F | °C
As of 11:18 AM on Friday 24 Oct 2014 (Local Time) from KAMW Reporting Station
Haze Haze  
Wind Chill: 60°   Ceiling: 300
Heat Index: 60°   Visibility: 2mi
Dew Point: 59°   Wind: 13mph
Humidity: 96%   Direction: 180°S
Pressure: 29.94"   Gusts: NA
Location:  42.02°N, 93.45°W
Report Text: KAMW 241618Z AUTO 18011KT 2SM BR OVC003 16/15 A2994 RMK AO2 T01560150
Loading
Personal Weather Stations






























Interactive Weather Map
Tropical Storm Tracking
New forecast layout! Learn more

10-Day Weather Forecast

Advertisements
Track Severe Weather on mobile